Time;durP1;ratioP1;P1;durP2;ratioP2;P2;SDS_P1;SDS_P2;PMS_P1;PMS_P2;Temp;Humidity;BMP_temperature;BMP_pressure;BME280_temperature;BME280_humidity;BME280_pressure;Samples;Min_cycle;Max_cycle;Signal;HPM_P1;HPM_P2
2022/10/08 00:01:40;;;;;;;15.93;14.57;;;13.90;99.90;;;;;;5072699;28;20633;-91
2022/10/08 00:04:07;;;;;;;15.87;14.53;;;13.90;99.90;;;;;;5075109;28;21178;-91
2022/10/08 00:06:34;;;;;;;16.50;14.90;;;13.50;99.90;;;;;;5074974;28;20643;-90
2022/10/08 00:09:03;;;;;;;18.77;16.27;;;13.90;99.90;;;;;;5075328;28;20720;-92
2022/10/08 00:11:32;;;;;;;16.70;15.00;;;13.90;99.90;;;;;;5074562;28;20664;-91
2022/10/08 00:14:00;;;;;;;17.90;14.27;;;13.90;99.90;;;;;;5074271;28;20660;-90
2022/10/08 00:16:29;;;;;;;15.67;13.93;;;13.90;99.90;;;;;;5072091;28;21012;-90
2022/10/08 00:19:00;;;;;;;16.97;13.97;;;13.90;99.90;;;;;;5073765;28;20624;-91
2022/10/08 00:21:28;;;;;;;15.07;13.77;;;13.80;99.90;;;;;;5072556;28;20940;-91
2022/10/08 00:23:56;;;;;;;16.13;14.50;;;13.90;99.90;;;;;;5073516;28;21004;-89
2022/10/08 00:26:25;;;;;;;15.50;13.87;;;13.30;99.90;;;;;;5071726;28;20652;-91
2022/10/08 00:28:54;;;;;;;16.03;14.63;;;13.50;99.90;;;;;;5073866;28;21003;-89
2022/10/08 00:31:24;;;;;;;15.93;14.37;;;13.60;99.90;;;;;;5074367;28;20695;-89
2022/10/08 00:33:52;;;;;;;17.13;15.00;;;13.50;99.90;;;;;;5074186;28;20687;-90
2022/10/08 00:36:20;;;;;;;15.47;14.00;;;13.50;99.90;;;;;;5070755;28;20783;-90
2022/10/08 00:38:48;;;;;;;17.03;15.53;;;13.20;99.90;;;;;;5074941;28;20656;-90
2022/10/08 00:41:19;;;;;;;17.17;15.47;;;13.30;99.90;;;;;;5077208;28;20639;-90
2022/10/08 00:43:48;;;;;;;19.30;15.63;;;13.00;99.90;;;;;;5058183;28;20620;-91
2022/10/08 00:46:24;;;;;;;17.77;16.00;;;13.20;99.90;;;;;;5075394;28;20656;-91
2022/10/08 00:48:54;;;;;;;16.03;14.80;;;13.20;99.90;;;;;;5072079;28;21058;-89
2022/10/08 00:51:23;;;;;;;17.53;15.83;;;13.10;99.90;;;;;;5074555;28;20668;-90
2022/10/08 00:53:51;;;;;;;18.67;16.27;;;13.00;99.90;;;;;;5072264;28;20648;-90
2022/10/08 00:56:19;;;;;;;16.73;15.30;;;13.00;99.90;;;;;;5073586;28;20727;-90
2022/10/08 00:58:45;;;;;;;18.47;16.57;;;13.00;99.90;;;;;;5073257;28;20639;-91
2022/10/08 01:01:13;;;;;;;16.97;15.37;;;12.90;99.90;;;;;;5073786;28;20640;-91
2022/10/08 01:03:40;;;;;;;18.83;16.90;;;12.90;99.90;;;;;;5075571;28;20668;-91
2022/10/08 01:06:19;;;;;;;17.63;16.13;;;12.50;99.90;;;;;;5073870;28;20633;-91
2022/10/08 01:08:54;;;;;;;20.13;15.40;;;12.70;99.90;;;;;;5074910;28;20665;-90
2022/10/08 01:11:33;;;;;;;17.93;16.13;;;12.90;99.90;;;;;;5076335;28;20648;-90
2022/10/08 01:14:09;;;;;;;18.63;16.77;;;12.90;99.90;;;;;;5076585;28;21319;-90
2022/10/08 01:16:43;;;;;;;18.20;16.57;;;12.90;99.90;;;;;;5076288;28;21163;-90
2022/10/08 01:19:42;;;;;;;16.80;15.30;;;12.80;99.90;;;;;;5079408;28;20625;-90
2022/10/08 01:22:22;;;;;;;16.93;15.20;;;12.80;99.90;;;;;;5078899;28;20635;-91
2022/10/08 01:27:43;;;;;;;18.30;16.77;;;12.80;99.90;;;;;;5073483;28;20814;-90
2022/10/08 01:30:14;;;;;;;17.73;16.07;;;12.80;99.90;;;;;;5073426;28;20624;-89
2022/10/08 01:32:47;;;;;;;16.80;15.20;;;12.60;99.90;;;;;;5072791;28;21034;-89
2022/10/08 01:35:18;;;;;;;15.77;14.33;;;12.90;99.90;;;;;;5073400;28;21246;-90
2022/10/08 01:37:46;;;;;;;15.13;13.80;;;12.40;99.90;;;;;;5076294;28;20729;-90
2022/10/08 01:40:18;;;;;;;20.93;15.53;;;12.80;99.90;;;;;;5072990;28;20632;-91
2022/10/08 01:42:49;;;;;;;15.90;14.43;;;12.80;99.90;;;;;;5072677;28;20718;-89
2022/10/08 01:45:23;;;;;;;16.67;14.47;;;12.60;99.90;;;;;;5073244;28;20620;-90
2022/10/08 01:47:53;;;;;;;17.77;15.87;;;12.90;99.90;;;;;;5070979;28;20757;-90
2022/10/08 01:50:25;;;;;;;15.60;14.20;;;12.90;99.90;;;;;;5070968;28;20736;-90
2022/10/08 01:52:57;;;;;;;16.67;15.30;;;12.60;99.90;;;;;;5071965;28;20617;-90
2022/10/08 01:55:28;;;;;;;16.33;14.83;;;12.90;99.90;;;;;;5072227;28;20628;-90
2022/10/08 01:58:02;;;;;;;17.07;15.37;;;12.60;99.90;;;;;;5074206;28;20656;-90
2022/10/08 02:00:31;;;;;;;16.00;14.70;;;12.40;99.90;;;;;;5071091;28;20677;-90
2022/10/08 02:02:59;;;;;;;16.40;14.90;;;12.90;99.90;;;;;;5074503;28;21007;-90
2022/10/08 02:05:30;;;;;;;16.33;14.83;;;12.70;99.90;;;;;;5075840;28;20632;-91
2022/10/08 02:07:58;;;;;;;16.50;14.80;;;13.00;99.90;;;;;;5074852;28;20661;-88
2022/10/08 02:10:26;;;;;;;16.40;15.00;;;12.80;99.90;;;;;;5070953;28;20967;-89
2022/10/08 02:12:54;;;;;;;16.40;14.80;;;13.30;99.90;;;;;;5071655;28;20724;-89
2022/10/08 02:15:28;;;;;;;14.70;13.40;;;13.10;99.90;;;;;;5069894;28;20627;-87
2022/10/08 02:18:05;;;;;;;16.47;15.07;;;13.40;99.90;;;;;;5076198;28;20686;-90
2022/10/08 02:20:36;;;;;;;16.13;14.80;;;13.60;99.90;;;;;;5080032;28;20627;-90
2022/10/08 02:23:08;;;;;;;16.97;15.47;;;13.00;99.90;;;;;;5082719;28;20964;-90
2022/10/08 02:25:38;;;;;;;17.57;15.97;;;13.30;99.90;;;;;;5083214;28;20623;-90
2022/10/08 02:28:15;;;;;;;17.60;16.10;;;13.20;99.90;;;;;;5079024;28;20667;-90
2022/10/08 02:30:50;;;;;;;18.43;16.77;;;13.20;99.90;;;;;;5074553;28;20643;-90
2022/10/08 02:33:24;;;;;;;18.33;16.50;;;13.20;99.90;;;;;;5075049;28;20734;-90
2022/10/08 02:35:56;;;;;;;16.93;15.33;;;13.20;99.90;;;;;;5076067;28;21110;-90
2022/10/08 02:38:28;;;;;;;19.90;17.53;;;13.20;99.90;;;;;;5074844;28;20578;-91
2022/10/08 02:40:59;;;;;;;20.30;15.97;;;12.80;99.90;;;;;;5071695;28;20986;-90
2022/10/08 02:43:32;;;;;;;16.70;15.30;;;13.00;99.90;;;;;;5076039;28;20639;-90
2022/10/08 02:46:03;;;;;;;16.50;15.10;;;13.20;99.90;;;;;;5074334;28;20629;-90
2022/10/08 02:48:32;;;;;;;17.47;15.90;;;13.20;99.90;;;;;;5074152;28;20751;-89
2022/10/08 02:51:03;;;;;;;17.10;15.53;;;13.00;99.90;;;;;;5075016;28;20664;-91
2022/10/08 02:53:30;;;;;;;18.60;16.87;;;13.30;99.90;;;;;;5076639;28;20624;-90
2022/10/08 02:56:09;;;;;;;18.03;16.43;;;13.30;99.90;;;;;;5074257;28;20667;-90
2022/10/08 02:58:37;;;;;;;16.53;15.20;;;13.30;99.90;;;;;;5074141;28;20631;-89
2022/10/08 03:01:17;;;;;;;17.50;15.70;;;13.30;99.90;;;;;;5073931;28;20634;-89
2022/10/08 03:03:49;;;;;;;23.53;16.53;;;12.80;99.90;;;;;;5073453;28;20642;-91
2022/10/08 03:06:18;;;;;;;18.10;16.30;;;13.20;99.90;;;;;;5072751;28;20857;-90
2022/10/08 03:08:48;;;;;;;17.70;16.10;;;12.90;99.90;;;;;;5072977;28;20589;-89
2022/10/08 03:11:16;;;;;;;17.47;15.70;;;12.80;99.90;;;;;;5073789;28;20687;-89
2022/10/08 03:13:46;;;;;;;17.40;15.70;;;13.20;99.90;;;;;;5072203;28;20635;-90
2022/10/08 03:16:19;;;;;;;18.00;16.30;;;13.00;99.90;;;;;;5073528;28;21327;-89
2022/10/08 03:18:47;;;;;;;17.47;15.97;;;12.80;99.90;;;;;;5074966;28;20709;-90
2022/10/08 03:21:16;;;;;;;18.63;16.77;;;12.90;99.90;;;;;;5072380;28;20608;-90
2022/10/08 03:23:43;;;;;;;17.97;16.27;;;13.20;99.90;;;;;;5071707;28;20652;-89
2022/10/08 03:26:10;;;;;;;16.77;15.47;;;13.20;99.90;;;;;;5075768;28;20643;-89
2022/10/08 03:28:37;;;;;;;17.57;14.87;;;12.80;99.90;;;;;;5073222;28;20628;-90
2022/10/08 03:31:05;;;;;;;16.20;14.50;;;13.20;99.90;;;;;;5072353;28;20637;-90
2022/10/08 03:33:34;;;;;;;16.60;15.30;;;13.20;99.90;;;;;;5073554;28;20705;-90
2022/10/08 03:36:01;;;;;;;18.73;16.80;;;12.90;99.90;;;;;;5071913;28;21480;-91
2022/10/08 03:38:28;;;;;;;17.40;15.90;;;13.20;99.90;;;;;;5072935;28;20628;-89
2022/10/08 03:40:56;;;;;;;21.23;15.70;;;13.20;99.90;;;;;;5074081;28;20628;-89
2022/10/08 03:43:24;;;;;;;17.90;16.30;;;13.20;99.90;;;;;;5073534;28;20644;-89
2022/10/08 03:45:51;;;;;;;16.33;15.03;;;13.50;99.90;;;;;;5071781;28;20635;-89
2022/10/08 03:48:18;;;;;;;16.03;14.73;;;13.20;99.90;;;;;;5072371;28;20675;-90
2022/10/08 03:50:52;;;;;;;16.10;14.60;;;13.30;99.90;;;;;;5073118;28;21477;-90
2022/10/08 03:53:19;;;;;;;15.43;13.97;;;13.30;99.90;;;;;;5072910;28;20676;-89
2022/10/08 03:55:46;;;;;;;15.90;14.40;;;13.40;99.90;;;;;;5072401;28;20957;-90
2022/10/08 03:58:13;;;;;;;17.17;14.77;;;13.40;99.90;;;;;;5071975;28;20655;-89
2022/10/08 04:00:40;;;;;;;14.37;12.97;;;13.40;99.90;;;;;;5075462;28;20628;-89
2022/10/08 04:03:07;;;;;;;14.97;13.73;;;13.40;99.90;;;;;;5072528;28;20635;-89
2022/10/08 04:05:34;;;;;;;14.73;13.33;;;13.10;99.90;;;;;;5072996;28;20935;-88
2022/10/08 04:08:02;;;;;;;14.00;12.67;;;13.40;99.90;;;;;;5072259;28;21272;-90
2022/10/08 04:10:29;;;;;;;13.97;12.67;;;13.60;99.90;;;;;;5075951;28;20636;-89
2022/10/08 04:12:56;;;;;;;13.47;12.07;;;13.60;99.90;;;;;;5076911;28;20656;-89
2022/10/08 04:15:23;;;;;;;18.63;15.10;;;13.30;99.90;;;;;;5070918;28;20628;-89
2022/10/08 04:17:50;;;;;;;14.57;13.10;;;13.20;99.90;;;;;;5072252;28;20660;-89
2022/10/08 04:20:17;;;;;;;14.30;12.90;;;13.70;99.90;;;;;;5073032;28;20628;-90
2022/10/08 04:22:43;;;;;;;13.30;11.90;;;13.70;99.90;;;;;;5073083;28;20593;-88
2022/10/08 04:25:12;;;;;;;14.67;13.17;;;13.70;99.90;;;;;;5071879;28;20643;-90
2022/10/08 04:27:38;;;;;;;14.67;13.30;;;13.90;99.90;;;;;;5072278;28;20656;-88
2022/10/08 04:30:07;;;;;;;15.03;12.67;;;13.60;99.90;;;;;;5072990;28;20632;-87
2022/10/08 04:32:34;;;;;;;12.80;11.60;;;13.80;99.90;;;;;;5072383;28;20664;-90
2022/10/08 04:35:01;;;;;;;12.27;11.13;;;13.80;99.90;;;;;;5070917;28;20643;-87
2022/10/08 04:37:28;;;;;;;12.80;11.70;;;13.40;99.90;;;;;;5072626;28;20660;-88
2022/10/08 04:39:55;;;;;;;15.70;10.93;;;13.80;99.90;;;;;;5073601;28;20743;-88
2022/10/08 04:42:24;;;;;;;13.13;11.07;;;13.80;99.90;;;;;;5071728;28;20634;-90
2022/10/08 04:44:51;;;;;;;11.73;10.60;;;13.90;99.90;;;;;;5071918;28;20616;-88
2022/10/08 04:47:18;;;;;;;13.27;10.10;;;13.90;99.90;;;;;;5074378;28;20651;-88
2022/10/08 04:49:45;;;;;;;11.30;10.20;;;13.90;99.90;;;;;;5074276;28;21221;-88
2022/10/08 04:52:12;;;;;;;11.63;10.53;;;14.00;99.90;;;;;;5072666;28;20652;-91
2022/10/08 04:54:39;;;;;;;12.30;11.20;;;13.90;99.90;;;;;;5071660;28;20620;-91
2022/10/08 04:57:06;;;;;;;14.10;12.70;;;13.90;99.90;;;;;;5072415;28;20667;-88
2022/10/08 04:59:34;;;;;;;14.10;12.63;;;13.80;99.90;;;;;;5071027;28;20641;-89
2022/10/08 05:02:01;;;;;;;15.70;13.97;;;13.80;99.90;;;;;;5071767;28;20608;-88
2022/10/08 05:04:28;;;;;;;12.93;11.70;;;13.40;99.90;;;;;;5071936;28;20629;-88
2022/10/08 05:06:55;;;;;;;14.23;12.77;;;13.70;99.90;;;;;;5071020;28;21301;-89
2022/10/08 05:09:21;;;;;;;17.67;12.47;;;13.20;99.90;;;;;;5070568;28;20651;-89
2022/10/08 05:11:50;;;;;;;14.53;13.00;;;13.20;99.90;;;;;;5070855;28;20671;-88
2022/10/08 05:14:17;;;;;;;13.30;12.20;;;13.70;99.90;;;;;;5069533;28;21060;-88
2022/10/08 05:16:45;;;;;;;14.67;13.57;;;13.70;99.90;;;;;;5072759;28;20653;-89
2022/10/08 05:19:12;;;;;;;14.10;12.50;;;13.40;99.90;;;;;;5073258;28;20659;-89
2022/10/08 05:21:38;;;;;;;15.00;13.53;;;13.80;99.90;;;;;;5072620;28;20640;-90
2022/10/08 05:24:07;;;;;;;14.97;13.67;;;13.80;99.90;;;;;;5075084;28;20636;-89
2022/10/08 05:26:36;;;;;;;16.20;14.23;;;13.80;99.90;;;;;;5072590;28;20668;-89
2022/10/08 05:29:03;;;;;;;14.73;12.23;;;13.80;99.90;;;;;;5071967;28;20625;-89
2022/10/08 05:31:31;;;;;;;13.77;12.67;;;13.90;99.90;;;;;;5071349;28;20654;-88
2022/10/08 05:33:59;;;;;;;15.00;13.50;;;14.00;99.90;;;;;;5072285;28;20633;-89
2022/10/08 05:36:28;;;;;;;14.90;13.50;;;14.00;99.90;;;;;;5072074;28;20672;-88
2022/10/08 05:38:55;;;;;;;15.70;13.87;;;14.00;99.90;;;;;;5063731;28;20682;-89
2022/10/08 05:41:24;;;;;;;15.50;13.17;;;14.00;99.90;;;;;;5071457;28;21108;-89
2022/10/08 05:43:53;;;;;;;13.47;12.30;;;14.00;99.90;;;;;;5070534;28;20637;-89
2022/10/08 05:46:20;;;;;;;16.60;12.70;;;14.00;99.90;;;;;;5070251;28;20697;-89
2022/10/08 05:48:47;;;;;;;13.10;11.00;;;13.70;99.90;;;;;;5070782;28;20646;-89
2022/10/08 05:51:17;;;;;;;15.13;12.23;;;14.10;99.90;;;;;;5071577;28;20665;-88
2022/10/08 05:53:48;;;;;;;14.70;12.40;;;14.10;99.90;;;;;;5071159;28;20671;-88
2022/10/08 05:56:17;;;;;;;13.63;12.27;;;14.10;99.90;;;;;;5070769;28;21015;-88
2022/10/08 05:58:44;;;;;;;13.40;12.23;;;14.00;99.90;;;;;;5070331;28;20647;-89
2022/10/08 06:01:14;;;;;;;15.67;13.83;;;14.10;99.90;;;;;;5074585;28;20645;-88
2022/10/08 06:03:41;;;;;;;13.90;12.50;;;14.00;99.90;;;;;;5069933;28;21551;-88
2022/10/08 06:06:11;;;;;;;13.70;12.30;;;14.10;99.90;;;;;;5071810;28;20659;-88
2022/10/08 06:08:40;;;;;;;13.87;11.37;;;14.10;99.90;;;;;;5071312;28;20643;-87
2022/10/08 06:11:10;;;;;;;19.90;11.57;;;13.80;99.90;;;;;;5071180;28;20629;-87
2022/10/08 06:13:37;;;;;;;14.07;12.03;;;14.10;99.90;;;;;;5072518;28;20733;-88
2022/10/08 06:16:05;;;;;;;16.20;12.10;;;13.70;99.90;;;;;;5074281;28;20735;-90
2022/10/08 06:18:34;;;;;;;13.10;11.70;;;14.10;99.90;;;;;;5070135;28;21738;-87
2022/10/08 06:21:02;;;;;;;13.00;11.70;;;14.20;99.90;;;;;;5071971;28;20648;-87
2022/10/08 06:23:29;;;;;;;13.33;11.70;;;14.20;99.90;;;;;;5071480;28;20641;-87
2022/10/08 06:26:01;;;;;;;13.93;12.53;;;14.20;99.90;;;;;;5071546;28;20644;-88
2022/10/08 06:28:28;;;;;;;14.70;12.77;;;14.20;99.90;;;;;;5070436;28;21234;-88
2022/10/08 06:30:55;;;;;;;13.73;12.33;;;14.20;99.90;;;;;;5071274;28;20644;-88
2022/10/08 06:33:28;;;;;;;13.43;12.03;;;14.30;99.90;;;;;;5069060;28;20667;-88
2022/10/08 06:35:55;;;;;;;13.90;11.60;;;14.10;99.90;;;;;;5068976;28;20644;-89
2022/10/08 06:38:23;;;;;;;12.73;11.37;;;14.40;99.90;;;;;;5068560;28;20629;-89
2022/10/08 06:40:49;;;;;;;12.27;11.07;;;14.40;99.90;;;;;;5074421;28;20648;-88
2022/10/08 06:43:19;;;;;;;14.10;12.70;;;14.50;99.90;;;;;;5077269;28;21188;-88
2022/10/08 06:45:52;;;;;;;14.97;13.57;;;14.50;99.90;;;;;;5078199;28;20623;-89
2022/10/08 06:48:19;;;;;;;12.63;11.33;;;14.50;99.90;;;;;;5082456;28;20674;-88
2022/10/08 06:50:46;;;;;;;11.70;10.63;;;14.50;99.90;;;;;;5083304;28;20640;-88
2022/10/08 06:53:12;;;;;;;12.73;10.63;;;14.50;99.90;;;;;;5085381;28;21244;-88
2022/10/08 06:55:41;;;;;;;11.60;10.33;;;14.60;99.90;;;;;;5077514;28;20967;-88
2022/10/08 06:58:08;;;;;;;12.87;10.00;;;14.70;99.90;;;;;;5082958;28;20640;-89
2022/10/08 07:00:38;;;;;;;11.77;10.50;;;14.70;99.90;;;;;;5080518;28;20621;-88
2022/10/08 07:03:05;;;;;;;11.53;9.80;;;14.80;99.90;;;;;;5074304;28;20627;-89
2022/10/08 07:05:33;;;;;;;11.80;10.23;;;14.80;99.90;;;;;;5085065;28;20656;-89
2022/10/08 07:08:00;;;;;;;11.60;9.43;;;14.90;99.90;;;;;;5088232;28;20737;-89
2022/10/08 07:10:26;;;;;;;11.17;8.93;;;15.00;99.90;;;;;;5085778;28;21201;-90
2022/10/08 07:12:53;;;;;;;12.40;9.67;;;15.10;99.90;;;;;;5088361;28;21507;-89
2022/10/08 07:15:20;;;;;;;15.83;10.37;;;15.10;99.90;;;;;;5084939;28;20636;-88
2022/10/08 07:17:51;;;;;;;9.43;8.50;;;15.20;99.90;;;;;;5094495;28;20648;-88
2022/10/08 07:20:17;;;;;;;9.83;8.47;;;15.10;99.90;;;;;;5089768;28;20631;-89
2022/10/08 07:22:44;;;;;;;17.07;9.17;;;15.00;99.90;;;;;;5084516;28;20635;-89
2022/10/08 07:25:11;;;;;;;14.97;8.80;;;15.10;99.90;;;;;;5089311;28;20635;-88
2022/10/08 07:27:40;;;;;;;10.97;9.40;;;15.20;99.90;;;;;;5089229;28;20652;-88
2022/10/08 07:30:07;;;;;;;10.20;9.27;;;15.20;99.90;;;;;;5087781;28;20639;-89
2022/10/08 07:32:35;;;;;;;9.10;7.60;;;15.30;99.90;;;;;;5081081;28;20671;-89
2022/10/08 07:35:04;;;;;;;13.60;7.93;;;15.40;99.90;;;;;;5085259;28;20647;-88
2022/10/08 07:37:31;;;;;;;14.30;7.90;;;15.50;99.90;;;;;;5081196;28;20643;-89
2022/10/08 07:39:58;;;;;;;11.37;7.27;;;15.70;99.90;;;;;;5084461;28;20644;-88
2022/10/08 07:42:25;;;;;;;9.27;8.27;;;15.80;99.90;;;;;;5087702;28;20635;-89
2022/10/08 07:44:52;;;;;;;9.70;7.30;;;15.90;99.90;;;;;;5088986;28;20714;-89
2022/10/08 07:47:19;;;;;;;7.60;6.87;;;15.80;99.90;;;;;;5090622;28;20667;-90
2022/10/08 07:49:47;;;;;;;12.70;7.63;;;15.90;99.90;;;;;;5085812;28;21277;-90
2022/10/08 07:52:16;;;;;;;7.10;6.40;;;15.80;99.90;;;;;;5089500;28;20619;-90
2022/10/08 07:54:44;;;;;;;7.47;5.77;;;16.00;99.90;;;;;;5087884;28;20640;-90
2022/10/08 07:57:10;;;;;;;9.00;5.77;;;16.10;99.90;;;;;;5087503;28;20664;-89
2022/10/08 07:59:37;;;;;;;9.20;6.03;;;15.90;99.90;;;;;;5087080;28;20629;-90
2022/10/08 08:02:04;;;;;;;6.83;5.60;;;16.00;99.90;;;;;;5085155;28;20659;-91
2022/10/08 08:04:31;;;;;;;5.30;4.80;;;16.20;99.90;;;;;;5089526;28;20636;-90
2022/10/08 08:06:58;;;;;;;7.43;4.60;;;16.40;99.90;;;;;;5086406;28;20670;-90
2022/10/08 08:09:27;;;;;;;5.50;4.30;;;16.50;99.90;;;;;;5082263;28;20624;-90
2022/10/08 08:11:53;;;;;;;5.87;4.30;;;16.50;99.90;;;;;;5081896;28;21181;-90
2022/10/08 08:14:20;;;;;;;5.90;4.20;;;16.70;99.90;;;;;;5083645;28;20759;-90
2022/10/08 08:16:48;;;;;;;8.13;4.93;;;16.90;99.90;;;;;;5090678;28;20720;-90
2022/10/08 08:19:15;;;;;;;5.80;4.80;;;16.80;99.90;;;;;;5081807;28;20909;-90
2022/10/08 08:21:41;;;;;;;6.30;4.20;;;16.90;99.90;;;;;;5068896;28;20616;-90
2022/10/08 08:24:11;;;;;;;7.90;5.27;;;16.90;99.90;;;;;;5087311;28;20624;-90
2022/10/08 08:26:41;;;;;;;5.10;3.77;;;17.00;99.90;;;;;;5088950;28;20662;-90
2022/10/08 08:29:09;;;;;;;5.90;3.43;;;16.80;99.90;;;;;;5089151;28;21009;-90
2022/10/08 08:31:38;;;;;;;5.53;3.50;;;16.60;99.90;;;;;;5081266;28;20632;-89
2022/10/08 08:34:07;;;;;;;6.73;4.50;;;16.60;99.90;;;;;;5087403;28;20667;-90
2022/10/08 08:36:37;;;;;;;3.70;3.00;;;16.30;99.90;;;;;;5081516;28;20655;-90
2022/10/08 08:39:04;;;;;;;5.93;2.77;;;16.50;99.90;;;;;;5082674;28;20628;-91
2022/10/08 08:41:45;;;;;;;6.23;3.90;;;16.70;99.90;;;;;;5083242;28;20979;-91
2022/10/08 08:44:18;;;;;;;5.20;3.57;;;16.90;99.90;;;;;;5084889;28;20643;-90
2022/10/08 08:46:51;;;;;;;7.23;3.40;;;17.10;99.90;;;;;;5097363;28;20643;-89
2022/10/08 08:49:23;;;;;;;7.40;3.10;;;17.30;99.90;;;;;;5089644;28;20636;-89
2022/10/08 08:51:51;;;;;;;6.60;3.00;;;17.50;99.90;;;;;;5085120;28;20627;-90
2022/10/08 08:54:19;;;;;;;6.93;3.20;;;17.60;99.90;;;;;;5077843;28;20664;-89
2022/10/08 08:56:50;;;;;;;6.40;2.83;;;17.60;99.90;;;;;;5077041;28;20677;-89
2022/10/08 08:59:26;;;;;;;6.83;2.23;;;17.50;99.90;;;;;;5082779;28;20640;-89
2022/10/08 09:01:58;;;;;;;8.00;2.53;;;17.50;99.90;;;;;;5076981;28;20677;-89
2022/10/08 09:04:35;;;;;;;9.93;4.00;;;17.80;99.90;;;;;;5073238;28;20674;-90
2022/10/08 09:07:07;;;;;;;7.23;2.80;;;17.80;99.90;;;;;;5072575;28;21348;-90
2022/10/08 09:09:38;;;;;;;7.67;2.90;;;17.70;99.90;;;;;;5074003;28;21188;-90
2022/10/08 09:12:15;;;;;;;7.67;4.57;;;18.10;99.90;;;;;;5073692;28;20643;-92
2022/10/08 09:14:45;;;;;;;7.20;3.23;;;18.40;99.90;;;;;;5069388;28;20705;-90
2022/10/08 09:17:15;;;;;;;8.50;3.13;;;18.40;99.90;;;;;;5071302;28;20644;-90
2022/10/08 09:19:44;;;;;;;5.33;3.27;;;18.30;99.90;;;;;;5073252;28;20719;-90
2022/10/08 09:22:22;;;;;;;7.13;3.00;;;18.90;99.90;;;;;;5071798;28;20700;-90
2022/10/08 09:24:53;;;;;;;8.60;4.07;;;18.90;99.90;;;;;;5073208;28;20636;-90
2022/10/08 09:27:22;;;;;;;14.23;3.00;;;19.40;99.90;;;;;;5072979;28;20675;-90
2022/10/08 09:29:49;;;;;;;9.83;3.10;;;18.90;99.90;;;;;;5074647;28;21014;-90
2022/10/08 09:32:19;;;;;;;6.37;3.20;;;18.80;99.90;;;;;;5082509;28;21189;-91
2022/10/08 09:34:47;;;;;;;8.77;3.90;;;18.40;99.90;;;;;;5079819;28;20687;-91
2022/10/08 09:37:23;;;;;;;7.67;2.83;;;18.50;99.90;;;;;;5080261;28;20660;-91
2022/10/08 09:40:17;;;;;;;8.23;3.57;;;18.70;99.90;;;;;;5078939;28;20656;-89
2022/10/08 09:43:04;;;;;;;8.73;3.37;;;19.20;99.90;;;;;;5084911;28;20652;-90
2022/10/08 09:45:34;;;;;;;5.60;2.60;;;19.20;99.90;;;;;;5085907;28;20818;-90
2022/10/08 09:48:16;;;;;;;6.90;3.20;;;18.90;99.90;;;;;;5090357;28;20659;-90
2022/10/08 09:50:51;;;;;;;7.70;3.17;;;19.60;99.90;;;;;;5089551;28;20684;-90
2022/10/08 09:53:21;;;;;;;6.27;2.57;;;20.50;97.50;;;;;;5088363;28;20686;-90
2022/10/08 09:55:52;;;;;;;4.53;1.93;;;20.70;93.80;;;;;;5085143;28;20654;-89
2022/10/08 09:58:22;;;;;;;8.00;2.67;;;20.90;92.30;;;;;;5083671;28;20668;-92
2022/10/08 10:00:58;;;;;;;6.00;2.50;;;21.60;92.10;;;;;;5080235;28;20643;-92
2022/10/08 10:03:27;;;;;;;6.30;2.37;;;21.30;90.10;;;;;;5080886;28;20604;-92
2022/10/08 10:05:55;;;;;;;9.10;2.37;;;21.10;89.60;;;;;;5079482;28;20690;-91
2022/10/08 10:08:59;;;;;;;5.27;2.30;;;21.00;90.10;;;;;;5080760;28;21314;-89
2022/10/08 10:11:34;;;;;;;5.23;2.20;;;21.10;90.60;;;;;;4991217;28;20631;-89
2022/10/08 10:14:18;;;;;;;4.43;1.90;;;20.30;92.00;;;;;;4999492;28;20669;-91
2022/10/08 10:16:49;;;;;;;5.20;2.57;;;20.10;93.70;;;;;;5048628;28;21025;-89
2022/10/08 10:19:19;;;;;;;6.87;3.23;;;20.20;93.50;;;;;;5076051;28;20640;-90
2022/10/08 10:21:55;;;;;;;7.70;3.27;;;20.60;93.30;;;;;;5072153;28;20988;-88
2022/10/08 10:24:48;;;;;;;5.97;2.60;;;20.40;91.50;;;;;;5071104;28;20673;-89
2022/10/08 10:27:19;;;;;;;9.20;3.20;;;20.50;91.80;;;;;;5074666;28;20778;-89
2022/10/08 10:29:55;;;;;;;6.33;3.03;;;21.10;90.80;;;;;;5075272;28;20640;-90
2022/10/08 10:32:27;;;;;;;6.10;2.50;;;21.30;86.00;;;;;;5072095;28;20653;-90
2022/10/08 10:35:03;;;;;;;3.57;1.90;;;21.50;87.20;;;;;;5069927;28;20659;-90
2022/10/08 10:37:38;;;;;;;6.60;3.17;;;21.60;84.30;;;;;;5072420;28;20662;-91
2022/10/08 10:40:24;;;;;;;5.90;2.37;;;21.80;87.50;;;;;;5074376;28;20643;-90
2022/10/08 10:43:03;;;;;;;7.90;2.60;;;22.20;79.80;;;;;;5075155;28;20641;-92
2022/10/08 10:45:34;;;;;;;5.77;2.27;;;21.80;81.80;;;;;;5076429;28;20604;-91
2022/10/08 10:48:02;;;;;;;8.73;2.70;;;21.10;85.40;;;;;;5077007;28;21157;-89
2022/10/08 10:50:36;;;;;;;12.20;3.23;;;20.20;90.20;;;;;;5077550;28;21123;-90
2022/10/08 10:53:09;;;;;;;8.67;3.07;;;20.20;90.50;;;;;;5077396;28;20633;-90
2022/10/08 10:55:40;;;;;;;6.97;2.63;;;21.90;85.80;;;;;;5075887;28;20657;-91
2022/10/08 10:58:33;;;;;;;7.87;2.60;;;23.00;79.80;;;;;;5080381;28;20678;-90
2022/10/08 11:01:09;;;;;;;6.93;3.83;;;24.40;72.40;;;;;;5079650;28;20784;-90
2022/10/08 11:03:45;;;;;;;4.70;2.80;;;24.10;69.70;;;;;;5083574;28;20639;-89
2022/10/08 11:06:30;;;;;;;4.03;2.33;;;24.50;65.30;;;;;;5075526;28;20760;-88
2022/10/08 11:09:02;;;;;;;7.40;2.60;;;22.90;67.50;;;;;;5074771;28;20686;-89
2022/10/08 11:11:38;;;;;;;4.33;2.57;;;24.00;68.70;;;;;;5073489;28;20651;-88
2022/10/08 11:14:16;;;;;;;7.33;2.60;;;25.50;61.90;;;;;;5076524;28;20663;-88
2022/10/08 11:16:58;;;;;;;10.13;2.93;;;26.90;57.70;;;;;;5074916;28;21543;-89
2022/10/08 11:19:37;;;;;;;7.90;2.73;;;26.60;55.60;;;;;;5075588;28;20631;-88
2022/10/08 11:22:12;;;;;;;7.60;2.53;;;27.10;53.00;;;;;;5073562;28;21241;-90
2022/10/08 11:24:56;;;;;;;8.20;5.97;;;24.40;54.40;;;;;;5075783;28;20639;-89
2022/10/08 11:27:33;;;;;;;5.00;3.60;;;23.60;55.30;;;;;;5075502;28;21606;-87
2022/10/08 11:30:05;;;;;;;5.30;3.90;;;24.50;56.20;;;;;;5078201;28;20643;-89
2022/10/08 11:32:34;;;;;;;5.63;4.30;;;24.90;53.90;;;;;;5074992;28;20644;-89
2022/10/08 11:35:18;;;;;;;8.53;4.87;;;24.10;53.90;;;;;;5077412;28;20805;-88
2022/10/08 11:37:50;;;;;;;5.93;3.90;;;23.90;56.30;;;;;;5085596;28;20669;-88
2022/10/08 11:40:25;;;;;;;5.83;2.33;;;25.30;56.30;;;;;;5086603;28;20640;-89
2022/10/08 11:43:00;;;;;;;6.40;2.20;;;25.40;54.80;;;;;;5083210;28;20994;-89
2022/10/08 11:45:33;;;;;;;6.13;2.20;;;24.50;53.80;;;;;;5082449;28;20677;-89
2022/10/08 11:48:22;;;;;;;7.40;2.30;;;25.50;52.30;;;;;;5078679;28;20655;-88
2022/10/08 11:50:50;;;;;;;7.57;2.50;;;24.80;53.30;;;;;;5071010;28;20664;-88
2022/10/08 11:53:20;;;;;;;8.50;3.17;;;25.30;52.30;;;;;;5074228;28;20651;-88
2022/10/08 11:55:51;;;;;;;7.93;2.43;;;25.50;51.30;;;;;;5071444;28;20712;-89
2022/10/08 11:58:23;;;;;;;6.23;2.50;;;26.00;51.40;;;;;;5071387;28;20671;-88
2022/10/08 12:01:00;;;;;;;5.70;2.40;;;26.70;50.20;;;;;;5069831;28;20642;-86
2022/10/08 12:03:29;;;;;;;9.00;2.33;;;26.30;49.60;;;;;;5072561;28;22297;-90
2022/10/08 12:06:14;;;;;;;5.80;2.77;;;26.70;50.10;;;;;;5071245;28;21236;-89
2022/10/08 12:08:54;;;;;;;8.37;3.30;;;25.80;48.60;;;;;;5073722;28;21225;-91
2022/10/08 12:11:50;;;;;;;10.07;2.60;;;26.20;49.40;;;;;;5075194;28;20629;-87
2022/10/08 12:14:46;;;;;;;7.50;3.50;;;24.30;51.00;;;;;;5072322;28;20656;-88
2022/10/08 12:17:13;;;;;;;8.30;2.37;;;24.60;51.10;;;;;;5071464;28;21252;-89
2022/10/08 12:20:08;;;;;;;7.20;3.03;;;25.60;50.90;;;;;;5070827;28;20639;-89
2022/10/08 12:23:00;;;;;;;3.60;1.70;;;26.20;49.90;;;;;;5071386;28;20652;-88
2022/10/08 12:25:48;;;;;;;5.13;2.07;;;27.20;48.60;;;;;;5051799;28;20712;-89
2022/10/08 12:28:52;;;;;;;4.37;1.70;;;27.20;48.10;;;;;;5071455;28;21020;-89
2022/10/08 12:31:26;;;;;;;5.13;2.03;;;25.80;48.20;;;;;;5074043;28;21330;-89
2022/10/08 12:34:03;;;;;;;4.47;2.53;;;25.90;48.20;;;;;;5071674;28;21158;-88
2022/10/08 12:36:48;;;;;;;5.13;2.73;;;26.00;48.50;;;;;;5070121;28;20672;-89
2022/10/08 12:39:31;;;;;;;5.23;3.63;;;25.80;48.20;;;;;;5070446;28;20643;-89
2022/10/08 12:42:09;;;;;;;5.23;1.70;;;26.10;48.70;;;;;;5071073;28;20647;-89
2022/10/08 12:44:47;;;;;;;5.97;2.57;;;27.30;47.60;;;;;;5072315;28;20830;-88
2022/10/08 12:47:24;;;;;;;4.10;2.30;;;27.90;47.10;;;;;;5075290;28;20958;-90
2022/10/08 12:50:00;;;;;;;9.50;1.93;;;26.50;45.50;;;;;;5079711;28;21047;-88
2022/10/08 12:52:34;;;;;;;8.50;2.23;;;25.70;45.70;;;;;;5080053;28;21658;-89
2022/10/08 12:55:05;;;;;;;5.07;2.20;;;25.30;46.90;;;;;;5072446;28;21228;-88
2022/10/08 12:57:35;;;;;;;4.83;1.80;;;24.10;49.50;;;;;;5072349;28;20756;-88
2022/10/08 13:00:07;;;;;;;4.80;2.20;;;24.10;51.10;;;;;;5072374;28;21289;-89